createdAt,value
2023-04-12T00:01:28.894Z,0.97
2023-04-12T00:03:57.640Z,0.90
2023-04-12T00:06:32.534Z,0.80
2023-04-12T00:09:02.467Z,0.97
2023-04-12T00:11:31.848Z,0.80
2023-04-12T00:13:59.952Z,0.90
2023-04-12T00:16:34.027Z,0.83
2023-04-12T00:19:03.491Z,0.80
2023-04-12T00:21:31.605Z,0.80
2023-04-12T00:23:59.767Z,0.90
2023-04-12T00:26:29.368Z,0.77
2023-04-12T00:28:57.293Z,0.70
2023-04-12T00:31:25.643Z,0.70
2023-04-12T00:33:53.882Z,0.77
2023-04-12T00:36:22.277Z,0.77
2023-04-12T00:38:50.382Z,0.80
2023-04-12T00:41:18.934Z,0.70
2023-04-12T00:43:49.884Z,0.70
2023-04-12T00:46:19.927Z,0.67
2023-04-12T00:48:48.559Z,0.90
2023-04-12T00:51:18.428Z,0.93
2023-04-12T00:53:46.865Z,0.77
2023-04-12T00:56:14.878Z,0.87
2023-04-12T00:58:42.908Z,0.83
2023-04-12T01:01:12.372Z,0.60
2023-04-12T01:03:43.661Z,0.70
2023-04-12T01:06:15.336Z,0.70
2023-04-12T01:08:48.869Z,0.80
2023-04-12T01:11:19.780Z,0.70
2023-04-12T01:13:52.960Z,1.10
2023-04-12T01:16:28.649Z,0.80
2023-04-12T01:19:00.152Z,0.83
2023-04-12T01:21:32.022Z,0.70
2023-04-12T01:24:14.158Z,0.70
2023-04-12T01:26:43.544Z,0.70
2023-04-12T01:29:13.450Z,0.67
2023-04-12T01:31:41.767Z,0.70
2023-04-12T01:34:11.043Z,0.80
2023-04-12T01:36:39.917Z,0.70
2023-04-12T01:39:07.835Z,0.80
2023-04-12T01:41:35.852Z,0.80
2023-04-12T01:44:03.868Z,0.80
2023-04-12T01:46:34.460Z,0.70
2023-04-12T01:49:07.060Z,0.70
2023-04-12T01:51:42.121Z,0.70
2023-04-12T01:54:11.894Z,0.70
2023-04-12T01:56:40.725Z,0.83
2023-04-12T01:59:11.919Z,0.80
2023-04-12T02:01:41.288Z,0.60
2023-04-12T02:04:09.421Z,0.70
2023-04-12T02:06:37.456Z,0.70
2023-04-12T02:09:05.917Z,0.80
2023-04-12T02:11:34.650Z,0.70
2023-04-12T02:14:02.763Z,0.80
2023-04-12T02:16:34.171Z,0.70
2023-04-12T02:19:03.935Z,0.77
2023-04-12T02:21:40.120Z,0.90
2023-04-12T02:24:08.181Z,0.70
2023-04-12T02:26:36.178Z,0.70
2023-04-12T02:29:04.847Z,0.70
2023-04-12T02:31:32.936Z,0.60
2023-04-12T02:34:01.329Z,0.70
2023-04-12T02:36:30.946Z,0.70
2023-04-12T02:38:59.598Z,0.80
2023-04-12T02:41:28.062Z,0.90
2023-04-12T02:43:56.300Z,0.70
2023-04-12T02:46:27.105Z,0.73
2023-04-12T02:48:59.172Z,0.60
2023-04-12T02:51:39.453Z,0.80
2023-04-12T02:54:08.189Z,0.80
2023-04-12T02:56:49.794Z,0.70
2023-04-12T02:59:34.398Z,0.80
2023-04-12T03:02:16.727Z,0.77
2023-04-12T03:04:46.980Z,0.77
2023-04-12T03:07:21.232Z,0.70
2023-04-12T03:09:54.337Z,0.70
2023-04-12T03:12:24.834Z,0.80
2023-04-12T03:15:12.107Z,0.50
2023-04-12T03:17:41.158Z,0.70
2023-04-12T03:20:10.661Z,0.70
2023-04-12T03:22:44.034Z,0.50
2023-04-12T03:25:12.685Z,0.73
2023-04-12T03:27:46.144Z,0.70
2023-04-12T03:30:17.403Z,0.73
2023-04-12T03:32:46.434Z,0.50
2023-04-12T03:35:14.799Z,0.70
2023-04-12T03:37:45.146Z,0.67
2023-04-12T03:40:14.870Z,0.70
2023-04-12T03:42:49.835Z,0.80
2023-04-12T03:45:18.224Z,0.83
2023-04-12T03:47:52.160Z,1.37
2023-04-12T03:50:23.502Z,1.27
2023-04-12T03:53:01.611Z,1.40
2023-04-12T03:55:32.651Z,1.70
2023-04-12T03:58:02.185Z,2.03
2023-04-12T04:00:35.457Z,2.37
2023-04-12T04:03:09.603Z,3.00
2023-04-12T04:05:55.202Z,3.30
2023-04-12T04:08:25.276Z,3.47
2023-04-12T04:10:54.602Z,3.47
2023-04-12T04:13:27.796Z,4.00
2023-04-12T04:16:03.545Z,4.20
2023-04-12T04:18:31.963Z,4.87
2023-04-12T04:21:01.446Z,4.20
2023-04-12T04:23:38.582Z,4.63
2023-04-12T04:26:10.641Z,4.80
2023-04-12T04:28:45.946Z,6.13
2023-04-12T04:31:19.977Z,5.50
2023-04-12T04:33:51.143Z,5.27
2023-04-12T04:36:23.220Z,5.57
2023-04-12T04:38:57.122Z,5.80
2023-04-12T04:41:39.545Z,6.43
2023-04-12T04:44:10.936Z,6.93
2023-04-12T04:46:45.400Z,6.53
2023-04-12T04:49:13.461Z,6.03
2023-04-12T04:51:41.387Z,6.80
2023-04-12T04:54:14.134Z,6.40
2023-04-12T04:56:43.566Z,6.90
2023-04-12T04:59:14.282Z,7.13
2023-04-12T05:01:43.148Z,6.93
2023-04-12T05:04:11.964Z,6.83
2023-04-12T05:06:40.074Z,6.53
2023-04-12T05:09:27.632Z,7.13
2023-04-12T05:11:57.792Z,7.20
2023-04-12T05:14:41.319Z,6.87
2023-04-12T05:17:14.301Z,6.80
2023-04-12T05:19:43.784Z,6.87
2023-04-12T05:22:13.014Z,6.80
2023-04-12T05:24:42.505Z,7.20
2023-04-12T05:27:10.542Z,7.13
2023-04-12T05:29:38.777Z,6.83
2023-04-12T05:32:11.414Z,6.23
2023-04-12T05:34:40.452Z,7.40
2023-04-12T05:37:11.797Z,6.80
2023-04-12T05:39:41.711Z,6.93
2023-04-12T05:42:11.265Z,7.27
2023-04-12T05:44:40.186Z,6.47
2023-04-12T05:47:12.074Z,5.90
2023-04-12T05:49:40.299Z,6.73
2023-04-12T05:52:11.033Z,6.63
2023-04-12T05:54:41.986Z,6.17
2023-04-12T05:57:17.648Z,6.53
2023-04-12T05:59:47.729Z,6.03
2023-04-12T06:02:15.764Z,6.17
2023-04-12T06:04:50.881Z,5.80
2023-04-12T06:07:21.283Z,6.47
2023-04-12T06:09:49.834Z,6.50
2023-04-12T06:12:19.865Z,6.17
2023-04-12T06:14:49.014Z,6.10
2023-04-12T06:17:18.508Z,5.93
2023-04-12T06:19:46.590Z,6.50
2023-04-12T06:22:16.688Z,6.00
2023-04-12T06:24:44.957Z,5.77
2023-04-12T06:27:13.397Z,5.30
2023-04-12T06:29:42.995Z,5.63
2023-04-12T06:32:11.296Z,5.63
2023-04-12T06:34:39.328Z,5.77
2023-04-12T06:37:15.918Z,5.63
2023-04-12T06:39:43.852Z,5.67
2023-04-12T06:42:14.406Z,5.57
2023-04-12T06:44:44.065Z,5.90
2023-04-12T06:47:12.268Z,5.57
2023-04-12T06:49:40.473Z,6.20
2023-04-12T06:52:08.416Z,5.67
2023-04-12T06:54:37.823Z,5.97
2023-04-12T06:57:09.606Z,6.00
2023-04-12T06:59:37.511Z,5.40
2023-04-12T07:02:07.899Z,5.67
2023-04-12T07:04:36.084Z,5.70
2023-04-12T07:07:04.171Z,5.63
2023-04-12T07:09:35.344Z,5.43
2023-04-12T07:12:03.313Z,5.13
2023-04-12T07:14:31.368Z,5.03
2023-04-12T07:16:59.295Z,5.10
2023-04-12T07:19:29.733Z,5.40
2023-04-12T07:21:58.008Z,4.83
2023-04-12T07:24:26.180Z,5.63
2023-04-12T07:26:54.757Z,5.83
2023-04-12T07:29:22.752Z,5.17
2023-04-12T07:31:50.787Z,5.33
2023-04-12T07:34:19.058Z,5.53
2023-04-12T07:36:48.464Z,4.90
2023-04-12T07:39:16.651Z,5.17
2023-04-12T07:41:46.437Z,4.50
2023-04-12T07:44:14.456Z,5.07
2023-04-12T07:46:42.986Z,4.67
2023-04-12T07:49:12.822Z,4.60
2023-04-12T07:51:44.032Z,4.40
2023-04-12T07:54:14.239Z,5.13
2023-04-12T07:56:42.168Z,4.60
2023-04-12T07:59:10.439Z,4.63
2023-04-12T08:01:38.475Z,4.93
2023-04-12T08:04:08.274Z,4.50
2023-04-12T08:06:38.446Z,5.03
2023-04-12T08:09:06.629Z,4.13
2023-04-12T08:11:36.016Z,3.87
2023-04-12T08:14:04.018Z,4.10
2023-04-12T08:16:32.533Z,3.60
2023-04-12T08:19:00.500Z,3.33
2023-04-12T08:21:30.121Z,3.90
2023-04-12T08:23:58.237Z,4.00
2023-04-12T08:26:29.652Z,3.77
2023-04-12T08:28:59.061Z,3.83
2023-04-12T08:31:27.088Z,3.50
2023-04-12T08:33:59.661Z,3.40
2023-04-12T08:36:28.003Z,3.50
2023-04-12T08:38:59.890Z,3.27
2023-04-12T08:41:28.030Z,3.37
2023-04-12T08:43:56.656Z,3.40
2023-04-12T08:46:27.037Z,3.57
2023-04-12T08:48:55.331Z,2.80
2023-04-12T08:51:23.490Z,3.20
2023-04-12T08:53:52.982Z,3.10
2023-04-12T08:56:21.859Z,3.13
2023-04-12T08:58:49.976Z,3.13
2023-04-12T09:01:18.986Z,2.93
2023-04-12T09:03:48.444Z,2.73
2023-04-12T09:06:16.695Z,3.10
2023-04-12T09:08:54.579Z,2.93
2023-04-12T09:11:24.334Z,3.00
2023-04-12T09:13:52.310Z,2.73
2023-04-12T09:16:34.793Z,3.00
2023-04-12T09:19:04.114Z,2.90
2023-04-12T09:21:32.884Z,2.63
2023-04-12T09:24:05.999Z,2.73
2023-04-12T09:26:33.949Z,2.80
2023-04-12T09:29:01.966Z,2.70
2023-04-12T09:31:29.911Z,2.70
2023-04-12T09:34:08.517Z,2.60
2023-04-12T09:36:39.901Z,2.60
2023-04-12T09:39:08.088Z,2.60
2023-04-12T09:41:36.416Z,2.93
2023-04-12T09:44:04.738Z,2.50
2023-04-12T09:46:32.725Z,2.50
2023-04-12T09:49:03.185Z,2.40
2023-04-12T09:51:36.709Z,2.40
2023-04-12T09:54:05.891Z,2.37
2023-04-12T09:56:35.630Z,2.40
2023-04-12T09:59:04.248Z,2.60
2023-04-12T10:01:35.521Z,2.00
2023-04-12T10:04:04.567Z,2.30
2023-04-12T10:06:35.394Z,2.20
2023-04-12T10:09:09.398Z,2.10
2023-04-12T10:11:40.509Z,2.10
2023-04-12T10:14:08.526Z,2.03
2023-04-12T10:16:36.649Z,2.10
2023-04-12T10:19:04.748Z,2.13
2023-04-12T10:21:32.835Z,1.87
2023-04-12T10:24:02.344Z,2.03
2023-04-12T10:26:30.397Z,2.30
2023-04-12T10:29:23.102Z,2.20
2023-04-12T10:31:51.161Z,2.40
2023-04-12T10:34:19.146Z,2.27
2023-04-12T10:36:52.656Z,2.33
2023-04-12T10:39:37.045Z,2.50
2023-04-12T10:42:20.497Z,2.60
2023-04-12T10:44:48.895Z,2.63
2023-04-12T10:47:17.309Z,2.57
2023-04-12T10:50:19.319Z,2.10
2023-04-12T10:53:10.174Z,2.93
2023-04-12T10:55:39.542Z,2.80
2023-04-12T10:58:10.007Z,2.30
2023-04-12T11:01:10.812Z,2.30
2023-04-12T11:03:39.541Z,2.17
2023-04-12T11:06:24.187Z,2.20
2023-04-12T11:09:41.350Z,2.30
2023-04-12T11:12:14.524Z,2.00
2023-04-12T11:14:46.677Z,1.77
2023-04-12T11:17:25.411Z,2.47
2023-04-12T11:19:58.322Z,1.73
2023-04-12T11:22:28.681Z,2.17
2023-04-12T11:25:00.412Z,2.10
2023-04-12T11:27:30.393Z,1.90
2023-04-12T11:29:59.293Z,2.07
2023-04-12T11:32:28.275Z,1.70
2023-04-12T11:34:56.933Z,2.17
2023-04-12T11:37:26.885Z,1.90
2023-04-12T11:39:57.116Z,1.73
2023-04-12T11:42:27.346Z,2.30
2023-04-12T11:45:01.045Z,1.80
2023-04-12T11:47:31.347Z,1.87
2023-04-12T11:50:00.186Z,1.70
2023-04-12T11:52:32.049Z,1.50
2023-04-12T11:55:01.822Z,1.90
2023-04-12T11:57:31.081Z,1.80
2023-04-12T12:00:00.921Z,1.60
2023-04-12T12:02:33.118Z,2.10
2023-04-12T12:05:05.078Z,4.40
2023-04-12T12:07:33.258Z,4.07
2023-04-12T12:10:01.254Z,4.43
2023-04-12T12:12:31.593Z,5.23
2023-04-12T12:15:01.883Z,4.07
2023-04-12T12:17:29.887Z,5.30
2023-04-12T12:19:58.444Z,4.80
2023-04-12T12:22:26.524Z,4.50
2023-04-12T12:24:57.223Z,4.67
2023-04-12T12:27:26.069Z,4.43
2023-04-12T12:29:56.433Z,4.53
2023-04-12T12:32:25.823Z,4.83
2023-04-12T12:34:55.162Z,4.57
2023-04-12T12:37:24.908Z,4.93
2023-04-12T12:40:11.490Z,5.30
2023-04-12T12:42:46.450Z,4.63
2023-04-12T12:45:14.567Z,3.60
2023-04-12T12:47:52.718Z,3.93
2023-04-12T12:50:24.634Z,4.43
2023-04-12T12:52:53.013Z,3.40
2023-04-12T12:55:21.706Z,3.63
2023-04-12T12:58:06.175Z,3.97
2023-04-12T13:00:36.341Z,3.27
2023-04-12T13:03:05.883Z,3.50
2023-04-12T13:05:34.251Z,3.20
2023-04-12T13:08:02.993Z,3.07
2023-04-12T13:10:31.005Z,2.97
2023-04-12T13:13:01.465Z,3.03
2023-04-12T13:15:29.418Z,3.50
2023-04-12T13:17:57.469Z,3.20
2023-04-12T13:20:29.991Z,3.50
2023-04-12T13:22:58.438Z,3.10
2023-04-12T13:25:26.545Z,2.73
2023-04-12T13:27:54.512Z,3.07
2023-04-12T13:30:22.631Z,2.73
2023-04-12T13:32:50.768Z,2.40
2023-04-12T13:35:19.008Z,2.50
2023-04-12T13:37:51.284Z,2.73
2023-04-12T13:40:19.392Z,2.90
2023-04-12T13:42:50.114Z,2.47
2023-04-12T13:45:21.338Z,2.50
2023-04-12T13:47:49.483Z,2.83
2023-04-12T13:50:19.395Z,2.30
2023-04-12T13:52:47.411Z,2.30
2023-04-12T13:55:16.867Z,2.40
2023-04-12T13:57:45.855Z,2.37
2023-04-12T14:00:15.532Z,2.70
2023-04-12T14:02:43.688Z,2.00
2023-04-12T14:05:14.828Z,1.90
2023-04-12T14:07:47.792Z,1.87
2023-04-12T14:10:19.707Z,2.17
2023-04-12T14:12:47.935Z,2.10
2023-04-12T14:15:19.189Z,2.30
2023-04-12T14:17:47.328Z,2.30
2023-04-12T14:20:17.367Z,1.97
2023-04-12T14:22:47.457Z,2.10
2023-04-12T14:25:17.253Z,2.30
2023-04-12T14:27:45.612Z,1.93
2023-04-12T14:30:14.287Z,2.37
2023-04-12T14:32:45.129Z,2.00
2023-04-12T14:35:14.264Z,1.70
2023-04-12T14:37:42.838Z,1.97
2023-04-12T14:40:11.231Z,2.53
2023-04-12T14:42:40.577Z,2.07
2023-04-12T14:45:09.996Z,2.00
2023-04-12T14:47:38.126Z,1.90
2023-04-12T14:50:06.974Z,1.60
2023-04-12T14:52:35.040Z,1.90
2023-04-12T14:55:03.891Z,2.00
2023-04-12T14:57:32.741Z,2.00
2023-04-12T15:00:14.278Z,1.80
2023-04-12T15:02:44.410Z,1.70
2023-04-12T15:05:12.733Z,1.60
2023-04-12T15:07:43.524Z,2.07
2023-04-12T15:10:14.064Z,2.10
2023-04-12T15:12:42.517Z,1.97
2023-04-12T15:15:12.554Z,1.63
2023-04-12T15:17:40.710Z,1.67
2023-04-12T15:20:11.389Z,1.60
2023-04-12T15:22:39.437Z,1.83
2023-04-12T15:25:08.657Z,1.70
2023-04-12T15:27:37.562Z,1.50
2023-04-12T15:30:08.203Z,1.43
2023-04-12T15:32:39.849Z,1.60
2023-04-12T15:35:25.269Z,1.47
2023-04-12T15:37:55.551Z,1.70
2023-04-12T15:40:24.216Z,1.60
2023-04-12T15:42:52.106Z,1.60
2023-04-12T15:45:20.162Z,1.67
2023-04-12T15:47:49.818Z,1.60
2023-04-12T15:50:19.047Z,1.50
2023-04-12T15:52:47.713Z,1.37
2023-04-12T15:55:20.305Z,1.70
2023-04-12T15:57:48.442Z,1.40
2023-04-12T16:00:25.795Z,1.37
2023-04-12T16:02:56.537Z,1.40
2023-04-12T16:05:26.646Z,1.10
2023-04-12T16:07:56.481Z,1.20
2023-04-12T16:10:24.802Z,1.20
2023-04-12T16:12:54.033Z,1.17
2023-04-12T16:15:22.214Z,1.30
2023-04-12T16:17:52.028Z,1.73
2023-04-12T16:20:22.314Z,1.70
2023-04-12T16:22:50.662Z,1.90
2023-04-12T16:25:18.910Z,2.00
2023-04-12T16:27:47.395Z,1.80
2023-04-12T16:30:15.944Z,1.80
2023-04-12T16:32:44.997Z,1.80
2023-04-12T16:35:13.807Z,1.90
2023-04-12T16:37:43.432Z,1.90
2023-04-12T16:40:13.002Z,1.63
2023-04-12T16:42:41.818Z,1.70
2023-04-12T16:45:10.812Z,1.73
2023-04-12T16:47:38.852Z,1.87
2023-04-12T16:50:09.016Z,1.80
2023-04-12T16:52:39.886Z,2.07
2023-04-12T16:55:11.339Z,2.10
2023-04-12T16:57:40.439Z,1.90
2023-04-12T17:00:23.663Z,1.70
2023-04-12T17:02:52.547Z,1.90
2023-04-12T17:05:21.003Z,1.70
2023-04-12T17:07:49.576Z,2.00
2023-04-12T17:10:19.501Z,1.70
2023-04-12T17:12:47.739Z,2.03
2023-04-12T17:15:17.181Z,1.87
2023-04-12T17:17:45.224Z,2.10
2023-04-12T17:20:13.737Z,1.70
2023-04-12T17:22:41.936Z,1.83
2023-04-12T17:25:10.738Z,2.00
2023-04-12T17:27:40.925Z,2.03
2023-04-12T17:30:10.567Z,2.17
2023-04-12T17:32:38.576Z,1.97
2023-04-12T17:35:07.649Z,1.53
2023-04-12T17:37:35.686Z,1.80
2023-04-12T17:40:05.508Z,1.70
2023-04-12T17:42:33.413Z,1.70
2023-04-12T17:45:02.699Z,1.50
2023-04-12T17:47:32.091Z,2.00
2023-04-12T17:50:01.908Z,1.70
2023-04-12T17:52:29.809Z,1.87
2023-04-12T17:54:57.709Z,2.00
2023-04-12T17:57:27.512Z,1.90
2023-04-12T17:59:55.456Z,1.50
2023-04-12T18:02:24.998Z,1.80
2023-04-12T18:04:53.149Z,1.80
2023-04-12T18:07:21.307Z,1.60
2023-04-12T18:09:49.340Z,1.80
2023-04-12T18:12:17.428Z,1.50
2023-04-12T18:14:45.336Z,1.77
2023-04-12T18:17:13.296Z,1.60
2023-04-12T18:19:42.555Z,1.50
2023-04-12T18:22:10.575Z,1.70
2023-04-12T18:24:38.639Z,1.40
2023-04-12T18:27:09.582Z,1.83
2023-04-12T18:29:37.480Z,1.83
2023-04-12T18:32:05.376Z,1.97
2023-04-12T18:34:33.941Z,2.00
2023-04-12T18:37:04.042Z,1.80
2023-04-12T18:39:33.139Z,1.90
2023-04-12T18:42:01.449Z,2.00
2023-04-12T18:44:29.985Z,1.90
2023-04-12T18:46:57.967Z,2.30
2023-04-12T18:49:25.999Z,2.07
2023-04-12T18:51:58.047Z,2.10
2023-04-12T18:54:28.896Z,2.17
2023-04-12T18:57:00.770Z,2.23
2023-04-12T18:59:28.730Z,2.03
2023-04-12T19:01:56.685Z,2.10
2023-04-12T19:04:24.743Z,2.20
2023-04-12T19:06:53.142Z,2.17
2023-04-12T19:09:21.239Z,1.93
2023-04-12T19:11:50.496Z,1.97
2023-04-12T19:14:18.426Z,2.20
2023-04-12T19:16:46.378Z,1.90
2023-04-12T19:19:14.364Z,1.97
2023-04-12T19:21:42.288Z,1.90
2023-04-12T19:24:10.228Z,2.10
2023-04-12T19:26:40.055Z,1.70
2023-04-12T19:29:09.360Z,2.10
2023-04-12T19:31:37.436Z,1.97
2023-04-12T19:34:06.231Z,2.07
2023-04-12T19:36:34.402Z,1.93
2023-04-12T19:39:02.594Z,1.97
2023-04-12T19:41:31.041Z,1.80
2023-04-12T19:43:59.067Z,1.70
2023-04-12T19:46:28.873Z,1.80
2023-04-12T19:48:58.215Z,1.73
2023-04-12T19:51:26.232Z,1.50
2023-04-12T19:53:57.665Z,1.80
2023-04-12T19:56:26.699Z,1.80
2023-04-12T19:58:54.691Z,1.70
2023-04-12T20:01:22.681Z,1.73
2023-04-12T20:03:52.007Z,1.83
2023-04-12T20:06:20.244Z,1.80
2023-04-12T20:08:48.159Z,1.70
2023-04-12T20:11:16.147Z,1.60
2023-04-12T20:13:44.040Z,1.50
2023-04-12T20:16:12.034Z,1.73
2023-04-12T20:18:39.993Z,1.70
2023-04-12T20:21:10.097Z,1.70
2023-04-12T20:23:38.011Z,1.80
2023-04-12T20:26:06.462Z,1.97
2023-04-12T20:28:34.518Z,1.80
2023-04-12T20:31:02.760Z,1.70
2023-04-12T20:33:30.828Z,1.90
2023-04-12T20:35:59.595Z,1.97
2023-04-12T20:38:30.634Z,1.60
2023-04-12T20:40:58.577Z,1.70
2023-04-12T20:43:27.005Z,1.70
2023-04-12T20:45:54.965Z,1.60
2023-04-12T20:48:23.250Z,1.77
2023-04-12T20:50:51.163Z,1.57
2023-04-12T20:53:19.053Z,1.80
2023-04-12T20:55:48.304Z,1.83
2023-04-12T20:58:16.976Z,1.40
2023-04-12T21:00:46.690Z,1.70
2023-04-12T21:03:14.694Z,1.50
2023-04-12T21:05:42.719Z,1.40
2023-04-12T21:08:12.947Z,1.77
2023-04-12T21:10:41.700Z,1.50
2023-04-12T21:13:11.841Z,1.60
2023-04-12T21:15:40.275Z,1.30
2023-04-12T21:18:08.292Z,1.40
2023-04-12T21:20:36.300Z,1.80
2023-04-12T21:23:07.040Z,1.60
2023-04-12T21:25:35.314Z,1.50
2023-04-12T21:28:03.248Z,1.77
2023-04-12T21:30:32.468Z,1.50
2023-04-12T21:33:02.228Z,1.30
2023-04-12T21:35:31.035Z,1.43
2023-04-12T21:37:58.977Z,1.50
2023-04-12T21:40:27.134Z,1.70
2023-04-12T21:42:55.054Z,1.50
2023-04-12T21:45:22.962Z,1.50
2023-04-12T21:47:54.069Z,1.60
2023-04-12T21:50:22.282Z,1.43
2023-04-12T21:52:50.149Z,1.23
2023-04-12T21:55:18.644Z,1.30
2023-04-12T21:57:46.524Z,1.20
2023-04-12T22:00:15.599Z,1.50
2023-04-12T22:02:44.132Z,1.43
2023-04-12T22:05:13.522Z,1.30
2023-04-12T22:07:41.786Z,1.40
2023-04-12T22:10:11.908Z,1.20
2023-04-12T22:12:40.043Z,1.20
2023-04-12T22:15:11.758Z,1.30
2023-04-12T22:17:40.744Z,1.33
2023-04-12T22:20:10.863Z,1.20
2023-04-12T22:22:40.501Z,1.30
2023-04-12T22:25:11.933Z,1.30
2023-04-12T22:27:39.952Z,1.13
2023-04-12T22:30:10.054Z,1.20
2023-04-12T22:32:38.081Z,1.00
2023-04-12T22:35:08.793Z,1.20
2023-04-12T22:37:37.646Z,1.10
2023-04-12T22:40:11.710Z,1.20
2023-04-12T22:42:46.556Z,1.13
2023-04-12T22:45:15.141Z,1.20
2023-04-12T22:47:43.151Z,1.10
2023-04-12T22:50:12.620Z,1.00
2023-04-12T22:52:40.710Z,1.30
2023-04-12T22:55:11.612Z,1.10
2023-04-12T22:57:39.531Z,1.03
2023-04-12T23:00:14.948Z,1.10
2023-04-12T23:02:44.855Z,1.00
2023-04-12T23:05:13.919Z,1.10
2023-04-12T23:07:43.389Z,1.20
2023-04-12T23:10:13.079Z,1.07
2023-04-12T23:12:40.985Z,1.10
2023-04-12T23:15:10.019Z,1.10
2023-04-12T23:17:38.036Z,1.00
2023-04-12T23:20:12.044Z,1.20
2023-04-12T23:22:56.749Z,0.90
2023-04-12T23:25:37.775Z,1.10
2023-04-12T23:28:07.489Z,1.03
2023-04-12T23:30:35.389Z,0.90
2023-04-12T23:33:04.346Z,1.10
2023-04-12T23:35:32.357Z,1.07
2023-04-12T23:38:01.540Z,0.90
2023-04-12T23:40:30.776Z,0.80
2023-04-12T23:42:58.697Z,1.10
2023-04-12T23:45:29.723Z,1.00
2023-04-12T23:47:57.648Z,0.90
2023-04-12T23:50:25.603Z,0.90
2023-04-12T23:52:53.586Z,1.00
2023-04-12T23:55:21.626Z,1.13
2023-04-12T23:57:50.884Z,0.90
